createdAt,value
2023-05-16T00:01:43.567Z,99.90
2023-05-16T00:04:11.837Z,99.90
2023-05-16T00:06:40.040Z,99.90
2023-05-16T00:09:09.463Z,99.90
2023-05-16T00:11:37.503Z,99.90
2023-05-16T00:14:05.784Z,99.90
2023-05-16T00:16:33.878Z,99.90
2023-05-16T00:19:02.621Z,99.90
2023-05-16T00:21:31.014Z,99.90
2023-05-16T00:23:59.160Z,1.00
2023-05-16T00:26:28.644Z,1.00
2023-05-16T00:28:56.868Z,1.00
2023-05-16T00:31:25.001Z,1.00
2023-05-16T00:33:53.135Z,1.00
2023-05-16T00:36:23.656Z,1.00
2023-05-16T00:38:52.057Z,1.00
2023-05-16T00:41:20.191Z,1.00
2023-05-16T00:43:49.642Z,1.00
2023-05-16T00:46:17.775Z,1.00
2023-05-16T00:48:46.120Z,1.00
2023-05-16T00:51:14.276Z,1.00
2023-05-16T00:53:42.379Z,1.00
2023-05-16T00:56:11.370Z,1.00
2023-05-16T00:58:39.438Z,1.00
2023-05-16T01:01:08.907Z,1.00
2023-05-16T01:03:38.106Z,1.00
2023-05-16T01:06:06.519Z,1.00
2023-05-16T01:08:34.894Z,1.00
2023-05-16T01:11:09.655Z,1.00
2023-05-16T01:13:48.381Z,1.00
2023-05-16T01:16:23.665Z,1.00
2023-05-16T01:19:00.224Z,1.00
2023-05-16T01:21:43.688Z,1.00
2023-05-16T01:24:16.170Z,1.00
2023-05-16T01:26:47.522Z,1.00
2023-05-16T01:29:16.704Z,1.00
2023-05-16T01:31:44.863Z,1.00
2023-05-16T01:34:13.033Z,1.00
2023-05-16T01:36:47.595Z,1.00
2023-05-16T01:39:22.769Z,1.00
2023-05-16T01:42:01.866Z,1.00
2023-05-16T01:44:34.794Z,1.00
2023-05-16T01:47:07.845Z,1.00
2023-05-16T01:49:40.265Z,1.00
2023-05-16T01:52:12.546Z,1.00
2023-05-16T01:54:46.122Z,1.00
2023-05-16T01:57:17.268Z,1.00
2023-05-16T01:59:46.710Z,1.00
2023-05-16T02:02:14.843Z,1.00
2023-05-16T02:04:42.937Z,1.00
2023-05-16T02:07:11.506Z,1.00
2023-05-16T02:09:39.599Z,1.00
2023-05-16T02:12:08.038Z,1.00
2023-05-16T02:14:37.484Z,1.00
2023-05-16T02:17:06.141Z,1.00
2023-05-16T02:19:34.312Z,1.00
2023-05-16T02:22:02.393Z,1.00
2023-05-16T02:24:30.414Z,1.00
2023-05-16T02:26:58.521Z,1.00
2023-05-16T02:29:26.576Z,1.00
2023-05-16T02:31:56.079Z,1.00
2023-05-16T02:34:24.207Z,1.00
2023-05-16T02:36:52.248Z,1.00
2023-05-16T02:39:20.259Z,1.00
2023-05-16T02:41:48.338Z,1.00
2023-05-16T02:44:16.404Z,1.00
2023-05-16T02:46:44.591Z,1.00
2023-05-16T02:49:14.045Z,1.00
2023-05-16T02:51:42.176Z,1.00
2023-05-16T02:54:10.475Z,1.00
2023-05-16T02:56:38.556Z,1.00
2023-05-16T02:59:07.010Z,1.00
2023-05-16T03:01:35.139Z,1.00
2023-05-16T03:04:03.413Z,1.00
2023-05-16T03:06:33.080Z,1.00
2023-05-16T03:09:01.237Z,1.00
2023-05-16T03:11:29.342Z,1.00
2023-05-16T03:14:01.552Z,1.00
2023-05-16T03:16:30.575Z,1.00
2023-05-16T03:18:58.863Z,1.00
2023-05-16T03:21:27.397Z,1.00
2023-05-16T03:23:56.989Z,1.00
2023-05-16T03:26:25.828Z,1.00
2023-05-16T03:28:54.017Z,1.00
2023-05-16T03:31:22.230Z,1.00
2023-05-16T03:33:50.334Z,1.00
2023-05-16T03:36:18.536Z,1.00
2023-05-16T03:38:46.742Z,99.90
2023-05-16T03:41:16.173Z,99.90
2023-05-16T03:43:44.264Z,99.90
2023-05-16T03:46:12.449Z,99.90
2023-05-16T03:48:40.574Z,99.90
2023-05-16T03:51:08.635Z,99.90
2023-05-16T03:53:36.757Z,99.90
2023-05-16T03:56:05.242Z,99.90
2023-05-16T03:58:34.717Z,99.90
2023-05-16T04:01:02.748Z,99.90
2023-05-16T04:03:31.323Z,99.90
2023-05-16T04:05:59.630Z,99.90
2023-05-16T04:08:27.801Z,99.90
2023-05-16T04:10:56.025Z,99.90
2023-05-16T04:13:24.212Z,99.90
2023-05-16T04:15:53.734Z,99.90
2023-05-16T04:18:21.798Z,99.90
2023-05-16T04:20:50.210Z,99.90
2023-05-16T04:23:18.252Z,99.90
2023-05-16T04:25:46.361Z,99.90
2023-05-16T04:28:14.421Z,99.90
2023-05-16T04:30:42.798Z,99.90
2023-05-16T04:33:12.631Z,99.90
2023-05-16T04:35:40.952Z,99.90
2023-05-16T04:38:09.026Z,99.90
2023-05-16T04:40:37.700Z,99.90
2023-05-16T04:43:06.734Z,99.90
2023-05-16T04:45:36.720Z,99.90
2023-05-16T04:48:06.057Z,99.90
2023-05-16T04:50:35.656Z,99.90
2023-05-16T04:53:03.805Z,99.90
2023-05-16T04:55:31.885Z,99.90
2023-05-16T04:58:00.041Z,99.90
2023-05-16T05:00:28.417Z,1.00
2023-05-16T05:02:56.801Z,1.00
2023-05-16T05:05:25.057Z,1.00
2023-05-16T05:07:54.521Z,1.00
2023-05-16T05:10:22.615Z,1.00
2023-05-16T05:12:50.831Z,1.00
2023-05-16T05:15:19.227Z,1.00
2023-05-16T05:17:47.568Z,1.00
2023-05-16T05:20:15.876Z,1.00
2023-05-16T05:22:44.026Z,1.00
2023-05-16T05:25:13.631Z,1.00
2023-05-16T05:27:41.878Z,1.00
2023-05-16T05:30:11.372Z,1.00
2023-05-16T05:32:39.584Z,1.00
2023-05-16T05:35:08.729Z,1.00
2023-05-16T05:37:36.839Z,1.00
2023-05-16T05:40:05.573Z,1.00
2023-05-16T05:42:35.358Z,1.00
2023-05-16T05:45:03.752Z,1.00
2023-05-16T05:47:32.125Z,1.00
2023-05-16T05:50:00.604Z,1.00
2023-05-16T05:52:29.041Z,1.00
2023-05-16T05:54:59.452Z,1.00
2023-05-16T05:57:27.568Z,1.00
2023-05-16T05:59:57.052Z,1.00
2023-05-16T06:02:25.251Z,1.00
2023-05-16T06:04:53.571Z,1.00
2023-05-16T06:07:21.709Z,1.00
2023-05-16T06:09:49.847Z,1.00
2023-05-16T06:12:18.044Z,1.00
2023-05-16T06:14:46.249Z,1.00
2023-05-16T06:17:15.878Z,1.00
2023-05-16T06:19:43.985Z,1.00
2023-05-16T06:22:12.341Z,1.00
2023-05-16T06:24:40.483Z,1.00
2023-05-16T06:27:08.843Z,1.00
2023-05-16T06:29:36.948Z,1.00
2023-05-16T06:32:05.160Z,1.00
2023-05-16T06:34:34.778Z,99.90
2023-05-16T06:37:03.802Z,99.90
2023-05-16T06:39:31.854Z,99.90
2023-05-16T06:42:00.005Z,99.90
2023-05-16T06:44:28.154Z,99.90
2023-05-16T06:46:56.366Z,99.90
2023-05-16T06:49:24.617Z,99.90
2023-05-16T06:51:54.111Z,99.90
2023-05-16T06:54:22.236Z,99.90
2023-05-16T06:56:50.337Z,99.90
2023-05-16T06:59:18.491Z,99.90
2023-05-16T07:01:46.778Z,99.90
2023-05-16T07:04:15.564Z,99.90
2023-05-16T07:06:44.021Z,99.90
2023-05-16T07:09:13.545Z,99.90
2023-05-16T07:11:41.786Z,99.90
2023-05-16T07:14:09.952Z,99.90
2023-05-16T07:16:38.209Z,99.90
2023-05-16T07:19:06.532Z,99.90
2023-05-16T07:21:34.687Z,99.90
2023-05-16T07:24:02.790Z,99.90
2023-05-16T07:26:32.378Z,99.90
2023-05-16T07:29:02.817Z,99.90
2023-05-16T07:31:31.160Z,1.00
2023-05-16T07:33:59.402Z,99.90
2023-05-16T07:38:56.055Z,99.90
2023-05-16T07:41:24.671Z,99.90
2023-05-16T07:43:54.187Z,99.90
2023-05-16T07:46:22.759Z,99.90
2023-05-16T07:48:51.088Z,99.90
2023-05-16T07:51:19.214Z,99.90
2023-05-16T07:53:47.327Z,99.90
2023-05-16T07:56:15.615Z,99.90
2023-05-16T07:58:44.085Z,99.90
2023-05-16T08:01:13.920Z,99.90
2023-05-16T08:03:42.116Z,99.90
2023-05-16T08:06:10.700Z,99.90
2023-05-16T08:08:39.716Z,99.90
2023-05-16T08:11:07.989Z,99.90
2023-05-16T08:13:36.083Z,99.90
2023-05-16T08:16:04.352Z,99.90
2023-05-16T08:18:34.078Z,99.90
2023-05-16T08:21:02.331Z,99.90
2023-05-16T08:23:31.689Z,99.90
2023-05-16T08:25:59.823Z,99.90
2023-05-16T08:28:28.040Z,99.90
2023-05-16T08:30:56.530Z,99.90
2023-05-16T08:33:24.668Z,1.00
2023-05-16T08:38:25.068Z,99.90
2023-05-16T08:40:53.173Z,99.90
2023-05-16T08:45:52.078Z,1.00
2023-05-16T08:48:24.943Z,99.90
2023-05-16T08:50:54.678Z,99.90
2023-05-16T08:53:27.760Z,99.90
2023-05-16T08:55:57.174Z,99.90
2023-05-16T08:58:26.157Z,99.90
2023-05-16T09:00:54.377Z,99.90
2023-05-16T09:03:25.206Z,99.90
2023-05-16T09:05:54.761Z,99.90
2023-05-16T09:08:22.882Z,99.90
2023-05-16T09:10:51.043Z,99.90
2023-05-16T09:13:19.146Z,99.90
2023-05-16T09:15:47.283Z,99.90
2023-05-16T09:18:15.577Z,99.90
2023-05-16T09:20:47.841Z,99.90
2023-05-16T09:23:25.115Z,99.90
2023-05-16T09:25:55.046Z,99.90
2023-05-16T09:28:23.740Z,99.90
2023-05-16T09:30:54.068Z,1.00
2023-05-16T09:33:24.565Z,99.90
2023-05-16T09:35:58.675Z,99.90
2023-05-16T09:38:29.425Z,99.90
2023-05-16T09:40:57.592Z,99.90
2023-05-16T09:43:27.859Z,99.90
2023-05-16T09:45:56.277Z,99.90
2023-05-16T09:48:28.381Z,99.90
2023-05-16T09:51:03.413Z,99.90
2023-05-16T09:53:34.361Z,99.90
2023-05-16T09:56:03.806Z,99.90
2023-05-16T09:58:33.038Z,99.90
2023-05-16T10:01:01.574Z,99.90
2023-05-16T10:03:30.463Z,99.90
2023-05-16T10:05:59.252Z,99.90
2023-05-16T10:08:28.384Z,99.90
2023-05-16T10:10:58.272Z,99.90
2023-05-16T10:13:30.950Z,99.90
2023-05-16T10:16:00.620Z,99.90
2023-05-16T10:18:32.088Z,99.90
2023-05-16T10:21:09.666Z,99.90
2023-05-16T10:23:42.502Z,99.90
2023-05-16T10:26:14.579Z,99.90
2023-05-16T10:28:43.473Z,99.90
2023-05-16T10:31:12.522Z,99.90
2023-05-16T10:33:41.152Z,99.90
2023-05-16T10:36:10.226Z,99.90
2023-05-16T10:38:39.634Z,99.90
2023-05-16T10:41:08.714Z,99.90
2023-05-16T10:43:38.381Z,99.90
2023-05-16T10:46:09.792Z,99.90
2023-05-16T10:48:40.152Z,99.90
2023-05-16T10:51:36.598Z,99.90
2023-05-16T10:54:09.806Z,99.90
2023-05-16T10:56:38.696Z,99.90
2023-05-16T10:59:25.271Z,99.90
2023-05-16T11:01:57.688Z,99.90
2023-05-16T11:04:46.029Z,99.90
2023-05-16T11:07:14.829Z,99.90
2023-05-16T11:09:46.357Z,99.90
2023-05-16T11:12:15.709Z,99.90
2023-05-16T11:14:47.759Z,99.90
2023-05-16T11:17:17.859Z,99.90
2023-05-16T11:19:48.396Z,99.90
2023-05-16T11:22:28.136Z,99.90
2023-05-16T11:24:59.208Z,99.90
2023-05-16T11:27:29.347Z,99.90
2023-05-16T11:30:03.508Z,99.90
2023-05-16T11:32:34.554Z,99.90
2023-05-16T11:35:03.965Z,99.90
2023-05-16T11:37:32.644Z,99.90
2023-05-16T11:40:01.873Z,99.90
2023-05-16T11:42:34.076Z,99.90
2023-05-16T11:45:08.203Z,99.90
2023-05-16T11:47:39.009Z,99.90
2023-05-16T11:50:10.013Z,99.90
2023-05-16T11:52:38.934Z,99.90
2023-05-16T11:55:08.078Z,99.90
2023-05-16T11:57:36.355Z,99.90
2023-05-16T12:00:08.136Z,99.90
2023-05-16T12:02:38.018Z,99.90
2023-05-16T12:05:10.326Z,99.90
2023-05-16T12:07:39.024Z,99.90
2023-05-16T12:10:08.883Z,99.90
2023-05-16T12:12:38.147Z,99.90
2023-05-16T12:15:08.175Z,99.90
2023-05-16T12:17:38.597Z,99.90
2023-05-16T12:20:11.806Z,99.90
2023-05-16T12:22:41.455Z,99.90
2023-05-16T12:25:29.587Z,94.00
2023-05-16T12:27:59.999Z,93.80
2023-05-16T12:30:29.518Z,99.60
2023-05-16T12:32:59.984Z,98.60
2023-05-16T12:35:33.276Z,93.90
2023-05-16T12:38:01.714Z,95.20
2023-05-16T12:40:30.793Z,91.10
2023-05-16T12:42:59.193Z,91.30
2023-05-16T12:45:30.046Z,94.40
2023-05-16T12:48:05.232Z,94.50
2023-05-16T12:50:34.808Z,95.00
2023-05-16T12:53:03.091Z,99.90
2023-05-16T12:55:31.645Z,95.60
2023-05-16T12:58:02.081Z,96.10
2023-05-16T13:00:31.755Z,92.10
2023-05-16T13:03:01.719Z,90.70
2023-05-16T13:05:30.275Z,93.60
2023-05-16T13:07:58.372Z,86.80
2023-05-16T13:10:27.128Z,92.90
2023-05-16T13:12:58.541Z,90.20
2023-05-16T13:15:27.623Z,84.10
2023-05-16T13:17:56.258Z,90.50
2023-05-16T13:20:25.867Z,89.00
2023-05-16T13:22:54.038Z,87.70
2023-05-16T13:25:22.349Z,88.00
2023-05-16T13:27:50.503Z,88.80
2023-05-16T13:30:18.963Z,88.20
2023-05-16T13:32:47.150Z,90.20
2023-05-16T13:35:16.087Z,90.70
2023-05-16T13:37:45.977Z,90.10
2023-05-16T13:40:14.381Z,92.50
2023-05-16T13:42:42.777Z,93.10
2023-05-16T13:45:11.350Z,53.60
2023-05-16T13:50:10.521Z,69.60
2023-05-16T13:52:39.329Z,92.60
2023-05-16T13:55:09.797Z,91.20
2023-05-16T13:57:38.018Z,90.60
2023-05-16T14:00:35.291Z,88.50
2023-05-16T14:03:00.746Z,94.20
2023-05-16T14:05:29.051Z,92.20
2023-05-16T14:07:57.335Z,91.00
2023-05-16T14:10:27.176Z,91.30
2023-05-16T14:12:55.864Z,91.40
2023-05-16T14:15:24.026Z,88.30
2023-05-16T14:17:52.229Z,84.50
2023-05-16T14:20:20.424Z,89.50
2023-05-16T14:22:48.648Z,90.50
2023-05-16T14:25:17.530Z,93.40
2023-05-16T14:27:47.124Z,99.90
2023-05-16T14:30:15.510Z,90.80
2023-05-16T14:32:43.690Z,93.00
2023-05-16T14:35:11.927Z,90.40
2023-05-16T14:37:40.106Z,84.70
2023-05-16T14:40:10.371Z,88.90
2023-05-16T14:42:38.627Z,91.00
2023-05-16T14:45:09.741Z,85.40
2023-05-16T14:47:37.962Z,90.00
2023-05-16T14:50:07.183Z,90.70
2023-05-16T14:52:35.456Z,90.00
2023-05-16T14:55:04.989Z,89.10
2023-05-16T14:57:33.221Z,87.50
2023-05-16T15:00:01.456Z,89.90
2023-05-16T15:02:31.221Z,89.40
2023-05-16T15:04:59.432Z,90.40
2023-05-16T15:07:27.673Z,91.10
2023-05-16T15:09:57.926Z,91.10
2023-05-16T15:12:26.149Z,90.80
2023-05-16T15:14:54.294Z,90.10
2023-05-16T15:17:22.413Z,86.00
2023-05-16T15:19:54.233Z,90.00
2023-05-16T15:22:22.417Z,90.80
2023-05-16T15:24:50.709Z,87.10
2023-05-16T15:27:18.859Z,95.80
2023-05-16T15:29:47.017Z,79.90
2023-05-16T15:32:18.463Z,75.00
2023-05-16T15:34:46.803Z,80.30
2023-05-16T15:37:16.578Z,79.20
2023-05-16T15:39:44.771Z,80.80
2023-05-16T15:42:13.002Z,76.50
2023-05-16T15:44:41.218Z,93.40
2023-05-16T15:49:39.063Z,99.90
2023-05-16T15:52:07.478Z,80.60
2023-05-16T15:54:37.411Z,75.10
2023-05-16T15:57:05.953Z,99.90
2023-05-16T15:59:34.160Z,99.90
2023-05-16T16:02:05.333Z,99.90
2023-05-16T16:04:33.778Z,99.90
2023-05-16T16:07:02.034Z,99.90
2023-05-16T16:09:30.214Z,99.90
2023-05-16T16:11:59.709Z,99.90
2023-05-16T16:14:27.941Z,99.90
2023-05-16T16:16:56.045Z,99.90
2023-05-16T16:19:24.474Z,99.90
2023-05-16T16:21:52.775Z,99.90
2023-05-16T16:24:21.214Z,80.50
2023-05-16T16:26:49.392Z,84.00
2023-05-16T16:29:18.953Z,95.10
2023-05-16T16:31:47.359Z,99.90
2023-05-16T16:34:15.647Z,87.70
2023-05-16T16:36:43.863Z,81.40
2023-05-16T16:39:12.141Z,80.70
2023-05-16T16:41:40.214Z,82.60
2023-05-16T16:44:08.362Z,75.30
2023-05-16T16:46:38.757Z,77.10
2023-05-16T16:49:07.004Z,82.00
2023-05-16T16:51:35.902Z,78.60
2023-05-16T16:54:04.132Z,82.30
2023-05-16T16:56:32.365Z,99.90
2023-05-16T16:59:00.538Z,78.30
2023-05-16T17:01:32.075Z,82.60
2023-05-16T17:04:02.218Z,77.30
2023-05-16T17:06:30.833Z,82.70
2023-05-16T17:09:02.493Z,74.90
2023-05-16T17:11:30.902Z,79.50
2023-05-16T17:13:59.784Z,75.30
2023-05-16T17:16:29.383Z,78.80
2023-05-16T17:18:57.715Z,81.30
2023-05-16T17:21:28.139Z,84.30
2023-05-16T17:23:58.244Z,82.50
2023-05-16T17:26:27.452Z,78.40
2023-05-16T17:28:56.465Z,99.90
2023-05-16T17:31:24.599Z,78.30
2023-05-16T17:33:53.290Z,75.80
2023-05-16T17:36:21.700Z,81.60
2023-05-16T17:38:51.255Z,79.10
2023-05-16T17:41:20.519Z,78.60
2023-05-16T17:43:48.794Z,78.40
2023-05-16T17:46:17.003Z,83.80
2023-05-16T17:48:45.598Z,80.10
2023-05-16T17:58:41.834Z,99.90
2023-05-16T18:01:10.294Z,82.00
2023-05-16T18:06:08.293Z,99.90
2023-05-16T18:08:36.657Z,81.80
2023-05-16T18:11:04.868Z,99.90
2023-05-16T18:13:34.503Z,99.90
2023-05-16T18:16:03.612Z,82.10
2023-05-16T18:18:31.896Z,83.70
2023-05-16T18:21:00.129Z,85.70
2023-05-16T18:23:28.355Z,83.90
2023-05-16T18:25:56.581Z,88.00
2023-05-16T18:28:24.907Z,87.60
2023-05-16T18:30:54.535Z,87.40
2023-05-16T18:33:22.930Z,90.70
2023-05-16T18:35:51.111Z,99.90
2023-05-16T18:38:31.528Z,99.90
2023-05-16T18:41:00.654Z,99.90
2023-05-16T18:43:28.904Z,99.90
2023-05-16T18:45:58.895Z,1.00
2023-05-16T18:48:27.104Z,1.00
2023-05-16T18:50:55.993Z,1.00
2023-05-16T18:53:24.364Z,1.00
2023-05-16T18:55:52.616Z,93.10
2023-05-16T18:58:20.885Z,96.70
2023-05-16T19:00:49.240Z,94.60
2023-05-16T19:03:19.073Z,96.10
2023-05-16T19:05:47.589Z,96.90
2023-05-16T19:08:16.145Z,97.60
2023-05-16T19:13:13.119Z,99.90
2023-05-16T19:15:41.473Z,99.90
2023-05-16T19:18:09.708Z,14.30
2023-05-16T19:20:39.229Z,99.90
2023-05-16T19:23:08.420Z,99.90
2023-05-16T19:25:36.708Z,99.90
2023-05-16T19:28:05.590Z,99.90
2023-05-16T19:30:33.823Z,99.90
2023-05-16T19:33:02.027Z,99.90
2023-05-16T19:35:30.638Z,99.90
2023-05-16T19:38:01.171Z,99.90
2023-05-16T19:40:29.798Z,99.90
2023-05-16T19:42:58.043Z,99.90
2023-05-16T19:45:26.426Z,99.90
2023-05-16T19:47:55.034Z,99.90
2023-05-16T19:50:23.441Z,1.00
2023-05-16T19:52:51.652Z,99.90
2023-05-16T19:55:22.233Z,99.90
2023-05-16T19:57:52.352Z,99.90
2023-05-16T20:00:21.044Z,99.90
2023-05-16T20:02:49.339Z,99.90
2023-05-16T20:07:48.026Z,99.90
2023-05-16T20:10:17.589Z,99.90
2023-05-16T20:12:47.442Z,99.90
2023-05-16T20:15:16.285Z,99.90
2023-05-16T20:17:44.462Z,99.90
2023-05-16T20:20:12.845Z,99.90
2023-05-16T20:22:43.401Z,99.90
2023-05-16T20:25:12.116Z,99.90
2023-05-16T20:27:40.649Z,99.90
2023-05-16T20:30:11.092Z,1.00
2023-05-16T20:32:39.738Z,99.90
2023-05-16T20:35:10.146Z,1.00
2023-05-16T20:37:38.623Z,1.00
2023-05-16T20:40:08.338Z,1.00
2023-05-16T20:42:36.531Z,99.90
2023-05-16T20:45:05.320Z,99.90
2023-05-16T20:47:34.886Z,99.90
2023-05-16T20:50:03.053Z,99.90
2023-05-16T20:52:31.365Z,99.90
2023-05-16T20:55:01.257Z,99.90
2023-05-16T20:57:29.594Z,99.90
2023-05-16T20:59:57.697Z,99.90
2023-05-16T21:02:25.894Z,99.90
2023-05-16T21:04:56.218Z,99.90
2023-05-16T21:07:26.266Z,99.90
2023-05-16T21:09:54.374Z,99.90
2023-05-16T21:12:22.493Z,1.00
2023-05-16T21:14:50.667Z,1.00
2023-05-16T21:17:18.789Z,99.90
2023-05-16T21:19:46.932Z,99.90
2023-05-16T21:22:16.465Z,99.90
2023-05-16T21:24:44.575Z,99.90
2023-05-16T21:27:12.701Z,99.90
2023-05-16T21:29:40.832Z,99.90
2023-05-16T21:32:09.254Z,99.90
2023-05-16T21:34:37.426Z,1.00
2023-05-16T21:37:07.290Z,99.90
2023-05-16T21:39:36.845Z,99.90
2023-05-16T21:42:05.293Z,99.90
2023-05-16T21:44:33.359Z,99.90
2023-05-16T21:47:01.501Z,99.90
2023-05-16T21:49:29.668Z,46.80
2023-05-16T21:51:57.811Z,99.90
2023-05-16T21:54:26.005Z,99.90
2023-05-16T21:56:55.487Z,99.90
2023-05-16T21:59:25.978Z,99.90
2023-05-16T22:01:54.093Z,99.90
2023-05-16T22:04:22.351Z,99.90
2023-05-16T22:06:50.702Z,99.90
2023-05-16T22:09:18.952Z,99.90
2023-05-16T22:11:47.130Z,99.90
2023-05-16T22:14:16.682Z,99.90
2023-05-16T22:16:45.033Z,99.90
2023-05-16T22:19:13.155Z,99.90
2023-05-16T22:21:41.258Z,99.90
2023-05-16T22:24:09.619Z,99.90
2023-05-16T22:26:37.836Z,99.90
2023-05-16T22:29:06.041Z,99.90
2023-05-16T22:31:35.579Z,99.90
2023-05-16T22:34:03.864Z,99.90
2023-05-16T22:36:32.251Z,99.90
2023-05-16T22:39:00.336Z,99.90
2023-05-16T22:41:29.089Z,99.90
2023-05-16T22:43:57.199Z,99.90
2023-05-16T22:46:25.569Z,99.90
2023-05-16T22:48:55.064Z,99.90
2023-05-16T22:51:23.367Z,99.90
2023-05-16T22:53:51.448Z,99.90
2023-05-16T22:56:19.599Z,99.90
2023-05-16T22:58:47.744Z,99.90
2023-05-16T23:01:15.893Z,99.90
2023-05-16T23:03:44.126Z,99.90
2023-05-16T23:06:13.625Z,99.90
2023-05-16T23:08:42.715Z,99.90
2023-05-16T23:11:10.901Z,99.90
2023-05-16T23:13:38.978Z,99.90
2023-05-16T23:16:07.452Z,99.90
2023-05-16T23:18:35.779Z,99.90
2023-05-16T23:21:04.165Z,99.90
2023-05-16T23:23:33.623Z,99.90
2023-05-16T23:26:01.730Z,99.90
2023-05-16T23:28:29.823Z,99.90
2023-05-16T23:30:57.929Z,99.90
2023-05-16T23:33:26.055Z,99.90
2023-05-16T23:35:54.228Z,99.90
2023-05-16T23:38:23.024Z,99.90
2023-05-16T23:40:52.610Z,99.90
2023-05-16T23:43:21.113Z,99.90
2023-05-16T23:45:49.209Z,99.90
2023-05-16T23:48:17.486Z,1.00
2023-05-16T23:50:45.635Z,1.00
2023-05-16T23:53:13.672Z,1.00
2023-05-16T23:55:41.778Z,99.90
2023-05-16T23:58:11.241Z,99.90
